Time;durP1;ratioP1;P1;durP2;ratioP2;P2;SDS_P1;SDS_P2;PMS_P1;PMS_P2;Temp;Humidity;BMP_temperature;BMP_pressure;BME280_temperature;BME280_humidity;BME280_pressure;Samples;Min_cycle;Max_cycle;Signal;HPM_P1;HPM_P2
2022/12/04 00:00:05;;;;;;;33.50;13.68;;;;;;;;;;4767747;30;20047;-80
2022/12/04 00:02:30;;;;;;;37.70;14.32;;;;;;;;;;4749862;30;20067;-80
2022/12/04 00:04:56;;;;;;;35.88;14.85;;;;;;;;;;4767016;30;20449;-80
2022/12/04 00:07:21;;;;;;;36.10;13.82;;;;;;;;;;4750363;30;20122;-80
2022/12/04 00:09:46;;;;;;;35.97;13.05;;;;;;;;;;4751984;30;20048;-80
2022/12/04 00:12:12;;;;;;;41.58;15.05;;;;;;;;;;4760412;30;20393;-80
2022/12/04 00:14:37;;;;;;;37.15;15.45;;;;;;;;;;4744218;30;20055;-80
2022/12/04 00:17:03;;;;;;;34.92;13.82;;;;;;;;;;4751126;30;20104;-80
2022/12/04 00:19:28;;;;;;;40.40;14.32;;;;;;;;;;4762091;30;20261;-80
2022/12/04 00:21:54;;;;;;;35.17;13.73;;;;;;;;;;4755174;30;21442;-80
2022/12/04 00:24:19;;;;;;;37.55;14.30;;;;;;;;;;4761835;30;20028;-80
2022/12/04 00:26:44;;;;;;;34.15;13.05;;;;;;;;;;4752039;30;20126;-80
2022/12/04 00:29:10;;;;;;;32.00;13.18;;;;;;;;;;4761527;30;20516;-80
2022/12/04 00:31:35;;;;;;;33.83;13.55;;;;;;;;;;4763705;30;20032;-79
2022/12/04 00:34:01;;;;;;;36.88;14.02;;;;;;;;;;4745285;30;20056;-80
2022/12/04 00:36:27;;;;;;;36.97;14.38;;;;;;;;;;4765891;30;20396;-79
2022/12/04 00:38:53;;;;;;;31.52;13.48;;;;;;;;;;4767168;30;20032;-80
2022/12/04 00:41:24;;;;;;;33.28;13.40;;;;;;;;;;4765860;30;20612;-80
2022/12/04 00:43:50;;;;;;;38.72;14.50;;;;;;;;;;4748533;30;20131;-79
2022/12/04 00:46:16;;;;;;;36.70;14.20;;;;;;;;;;4750162;30;20122;-81
2022/12/04 00:48:42;;;;;;;39.38;14.85;;;;;;;;;;4758255;30;20043;-80
2022/12/04 00:51:14;;;;;;;36.05;15.10;;;;;;;;;;4756990;30;20208;-80
2022/12/04 00:53:40;;;;;;;43.78;15.48;;;;;;;;;;4745006;30;20032;-80
2022/12/04 00:56:11;;;;;;;34.65;14.27;;;;;;;;;;4760127;30;20641;-80
2022/12/04 00:58:37;;;;;;;31.90;13.52;;;;;;;;;;4746195;30;20398;-80
2022/12/04 01:01:09;;;;;;;35.67;14.27;;;;;;;;;;4763450;30;20043;-79
2022/12/04 01:03:34;;;;;;;32.45;13.75;;;;;;;;;;4752043;30;20497;-80
2022/12/04 01:06:03;;;;;;;31.85;13.98;;;;;;;;;;4758819;30;20035;-80
2022/12/04 01:08:28;;;;;;;34.25;13.25;;;;;;;;;;4765001;30;20042;-80
2022/12/04 01:10:54;;;;;;;35.90;14.63;;;;;;;;;;4750350;30;20031;-80
2022/12/04 01:13:19;;;;;;;34.05;14.77;;;;;;;;;;4749770;30;20734;-80
2022/12/04 01:15:46;;;;;;;35.85;14.27;;;;;;;;;;4767242;30;20038;-80
2022/12/04 01:18:13;;;;;;;33.38;13.93;;;;;;;;;;4768670;30;20493;-80
2022/12/04 01:20:39;;;;;;;39.30;13.55;;;;;;;;;;4765511;30;20500;-79
2022/12/04 01:23:04;;;;;;;33.55;13.70;;;;;;;;;;4754523;30;20074;-80
2022/12/04 01:25:30;;;;;;;38.15;15.05;;;;;;;;;;4764901;30;20059;-80
2022/12/04 01:27:55;;;;;;;36.30;15.55;;;;;;;;;;4773618;30;20043;-80
2022/12/04 01:30:21;;;;;;;36.67;14.57;;;;;;;;;;4769996;30;20039;-80
2022/12/04 01:32:46;;;;;;;33.70;14.57;;;;;;;;;;4761279;30;20547;-81
2022/12/04 01:35:12;;;;;;;37.08;13.80;;;;;;;;;;4760008;30;20043;-80
2022/12/04 01:37:37;;;;;;;34.40;14.18;;;;;;;;;;4749588;30;20516;-80
2022/12/04 01:40:04;;;;;;;38.00;14.13;;;;;;;;;;4762519;30;20434;-79
2022/12/04 01:42:29;;;;;;;39.10;15.15;;;;;;;;;;4763771;30;20422;-80
2022/12/04 01:45:32;;;;;;;37.45;14.20;;;;;;;;;;4751666;30;20088;-80
2022/12/04 01:48:19;;;;;;;34.92;15.18;;;;;;;;;;4762502;30;20054;-80
2022/12/04 01:50:47;;;;;;;37.95;15.02;;;;;;;;;;4754206;30;20050;-80
2022/12/04 01:53:13;;;;;;;42.33;15.88;;;;;;;;;;4755760;30;20058;-80
2022/12/04 01:55:39;;;;;;;36.33;13.93;;;;;;;;;;4750341;30;20383;-80
2022/12/04 01:58:06;;;;;;;37.47;15.18;;;;;;;;;;4753535;30;20553;-80
2022/12/04 02:00:31;;;;;;;36.00;14.70;;;;;;;;;;4757842;30;20027;-79
2022/12/04 02:02:57;;;;;;;30.52;13.00;;;;;;;;;;4751827;30;20031;-80
2022/12/04 02:05:23;;;;;;;38.03;14.93;;;;;;;;;;4761234;30;20028;-80
2022/12/04 02:07:51;;;;;;;34.25;14.57;;;;;;;;;;4774888;30;20477;-79
2022/12/04 02:10:23;;;;;;;36.63;15.50;;;;;;;;;;4764434;30;20057;-80
2022/12/04 02:13:10;;;;;;;37.42;15.18;;;;;;;;;;4774396;30;20085;-80
2022/12/04 02:15:59;;;;;;;39.67;14.88;;;;;;;;;;4751623;30;20043;-80
2022/12/04 02:18:39;;;;;;;36.50;14.07;;;;;;;;;;4771057;30;20039;-80
2022/12/04 02:21:15;;;;;;;36.42;14.98;;;;;;;;;;4772713;30;20036;-80
2022/12/04 02:24:14;;;;;;;38.17;14.18;;;;;;;;;;4760357;30;20043;-80
2022/12/04 02:26:52;;;;;;;31.52;13.75;;;;;;;;;;4764494;30;20131;-80
2022/12/04 02:29:36;;;;;;;35.90;15.13;;;;;;;;;;4753915;30;20502;-79
2022/12/04 02:32:38;;;;;;;32.20;12.77;;;;;;;;;;4754968;30;20513;-80
2022/12/04 02:35:17;;;;;;;34.72;13.48;;;;;;;;;;4769257;30;20481;-80
2022/12/04 02:37:46;;;;;;;35.45;15.00;;;;;;;;;;4750592;30;20436;-80
2022/12/04 02:40:20;;;;;;;41.85;16.17;;;;;;;;;;4763825;30;20040;-80
2022/12/04 02:43:00;;;;;;;40.17;14.65;;;;;;;;;;4762808;30;20028;-81
2022/12/04 02:45:31;;;;;;;33.70;13.98;;;;;;;;;;4768645;30;20489;-80
2022/12/04 02:47:59;;;;;;;37.60;14.27;;;;;;;;;;4749823;30;20510;-81
2022/12/04 02:50:26;;;;;;;38.15;14.32;;;;;;;;;;4748151;30;20117;-80
2022/12/04 02:53:09;;;;;;;35.85;15.82;;;;;;;;;;4762816;30;20050;-81
2022/12/04 02:55:42;;;;;;;39.22;14.23;;;;;;;;;;4759571;30;20027;-80
2022/12/04 02:58:15;;;;;;;39.03;15.45;;;;;;;;;;4768386;30;20040;-80
2022/12/04 03:00:44;;;;;;;34.33;14.05;;;;;;;;;;4747046;30;20036;-79
2022/12/04 03:03:23;;;;;;;38.53;14.63;;;;;;;;;;4759062;30;20058;-80
2022/12/04 03:05:57;;;;;;;37.72;14.63;;;;;;;;;;4748694;30;20027;-80
2022/12/04 03:08:27;;;;;;;42.78;15.73;;;;;;;;;;4759627;30;20612;-80
2022/12/04 03:10:56;;;;;;;37.70;15.35;;;;;;;;;;4769297;30;20036;-80
2022/12/04 03:13:42;;;;;;;35.35;13.80;;;;;;;;;;4750505;30;20170;-80
2022/12/04 03:16:17;;;;;;;41.53;16.48;;;;;;;;;;4765953;30;20051;-80
2022/12/04 03:18:47;;;;;;;37.03;15.48;;;;;;;;;;4769106;30;20057;-79
2022/12/04 03:21:20;;;;;;;37.50;15.15;;;;;;;;;;4744922;30;20027;-80
2022/12/04 03:24:29;;;;;;;37.10;14.88;;;;;;;;;;4751136;30;20513;-80
2022/12/04 03:26:58;;;;;;;40.67;16.50;;;;;;;;;;4722135;30;20053;-80
2022/12/04 03:29:38;;;;;;;35.67;14.60;;;;;;;;;;4713720;30;20090;-80
2022/12/04 03:32:13;;;;;;;37.42;15.40;;;;;;;;;;4718574;30;20563;-80
2022/12/04 03:35:00;;;;;;;38.05;14.93;;;;;;;;;;4767312;30;20089;-80
2022/12/04 03:37:37;;;;;;;38.33;15.77;;;;;;;;;;4751168;30;20046;-80
2022/12/04 03:40:29;;;;;;;41.10;15.57;;;;;;;;;;4745761;30;20028;-80
2022/12/04 03:43:25;;;;;;;34.60;14.70;;;;;;;;;;4763567;30;20193;-80
2022/12/04 03:46:12;;;;;;;35.50;15.05;;;;;;;;;;4774411;30;20047;-80
2022/12/04 03:48:52;;;;;;;38.58;14.25;;;;;;;;;;4751262;30;20565;-80
2022/12/04 03:51:34;;;;;;;36.55;14.80;;;;;;;;;;4764283;30;20032;-80
2022/12/04 03:54:07;;;;;;;35.88;14.65;;;;;;;;;;4752690;30;20036;-79
2022/12/04 03:56:42;;;;;;;34.65;13.85;;;;;;;;;;4751310;30;20039;-79
2022/12/04 03:59:23;;;;;;;38.00;15.82;;;;;;;;;;4764734;30;20035;-80
2022/12/04 04:01:50;;;;;;;34.47;14.15;;;;;;;;;;4761579;30;20035;-79
2022/12/04 04:04:21;;;;;;;31.83;14.20;;;;;;;;;;4762495;30;20036;-79
2022/12/04 04:06:54;;;;;;;40.58;15.07;;;;;;;;;;4746157;30;20089;-79
2022/12/04 04:09:24;;;;;;;36.33;15.35;;;;;;;;;;4752940;30;20039;-80
2022/12/04 04:12:07;;;;;;;39.58;14.50;;;;;;;;;;4762526;30;20047;-79
2022/12/04 04:26:01;;;;;;;37.47;14.25;;;;;;;;;;4762942;30;20575;-80
2022/12/04 04:28:33;;;;;;;36.95;14.90;;;;;;;;;;4748893;30;20039;-80
2022/12/04 04:31:35;;;;;;;39.67;15.48;;;;;;;;;;4760951;30;20202;-80
2022/12/04 04:34:06;;;;;;;41.15;13.88;;;;;;;;;;4746609;30;20040;-80
2022/12/04 04:36:50;;;;;;;38.22;15.93;;;;;;;;;;4747874;30;20114;-80
2022/12/04 04:39:20;;;;;;;34.67;13.88;;;;;;;;;;4753992;30;20071;-80
2022/12/04 04:41:53;;;;;;;43.13;15.75;;;;;;;;;;4763742;30;20039;-80
2022/12/04 04:44:32;;;;;;;36.30;14.50;;;;;;;;;;4750369;30;20328;-80
2022/12/04 04:47:01;;;;;;;35.28;14.32;;;;;;;;;;4760692;30;20071;-80
2022/12/04 04:49:30;;;;;;;36.70;15.35;;;;;;;;;;4752957;30;20421;-79
2022/12/04 04:51:56;;;;;;;36.25;13.75;;;;;;;;;;4759929;30;20165;-80
2022/12/04 04:54:23;;;;;;;39.42;15.20;;;;;;;;;;4751767;30;20040;-79
2022/12/04 04:56:49;;;;;;;35.38;14.15;;;;;;;;;;4761349;30;20452;-80
2022/12/04 04:59:14;;;;;;;37.45;15.32;;;;;;;;;;4745725;30;20032;-80
2022/12/04 05:01:42;;;;;;;35.58;14.27;;;;;;;;;;4761570;30;20035;-80
2022/12/04 05:04:07;;;;;;;43.67;15.88;;;;;;;;;;4760926;30;20088;-80
2022/12/04 05:06:33;;;;;;;37.33;14.48;;;;;;;;;;4749080;30;20501;-80
2022/12/04 05:08:59;;;;;;;33.40;14.60;;;;;;;;;;4750417;30;20541;-79
2022/12/04 05:11:24;;;;;;;42.75;16.25;;;;;;;;;;4764606;30;20064;-80
2022/12/04 05:13:50;;;;;;;39.47;16.45;;;;;;;;;;4746636;30;20201;-80
2022/12/04 05:16:15;;;;;;;34.70;14.80;;;;;;;;;;4750934;30;20040;-81
2022/12/04 05:19:52;;;;;;;35.53;13.40;;;;;;;;;;4768607;30;20043;-80
2022/12/04 05:21:32;;;;;;;33.88;14.52;;;;;;;;;;4770462;30;20035;-80
2022/12/04 05:23:58;;;;;;;42.03;16.42;;;;;;;;;;4767051;30;20032;-79
2022/12/04 05:26:23;;;;;;;31.65;13.85;;;;;;;;;;4758209;30;20034;-80
2022/12/04 05:28:48;;;;;;;39.53;14.30;;;;;;;;;;4755494;30;20039;-80
2022/12/04 05:31:14;;;;;;;28.35;12.57;;;;;;;;;;4756086;30;20043;-80
2022/12/04 05:33:39;;;;;;;35.75;14.68;;;;;;;;;;4768590;30;20085;-80
2022/12/04 05:36:07;;;;;;;35.75;15.10;;;;;;;;;;4770786;30;20042;-80
2022/12/04 05:38:33;;;;;;;33.05;13.77;;;;;;;;;;4770558;30;20058;-80
2022/12/04 05:40:59;;;;;;;33.75;15.52;;;;;;;;;;4760141;30;20027;-80
2022/12/04 05:43:25;;;;;;;33.97;14.05;;;;;;;;;;4765370;30;20406;-79
2022/12/04 05:45:50;;;;;;;33.10;14.18;;;;;;;;;;4752275;30;20036;-80
2022/12/04 05:48:16;;;;;;;32.78;13.43;;;;;;;;;;4754971;30;20401;-80
2022/12/04 05:50:41;;;;;;;38.53;14.52;;;;;;;;;;4771496;30;20047;-80
2022/12/04 05:53:06;;;;;;;34.03;13.85;;;;;;;;;;4761123;30;20035;-80
2022/12/04 05:55:32;;;;;;;31.55;13.80;;;;;;;;;;4775210;30;20115;-80
2022/12/04 05:57:57;;;;;;;33.88;14.50;;;;;;;;;;4761793;30;20505;-80
2022/12/04 06:00:23;;;;;;;37.80;15.05;;;;;;;;;;4768390;30;20031;-80
2022/12/04 06:02:48;;;;;;;35.13;15.30;;;;;;;;;;4750449;30;20042;-80
2022/12/04 06:05:14;;;;;;;31.60;14.02;;;;;;;;;;4762926;30;20030;-80
2022/12/04 06:07:39;;;;;;;36.10;14.52;;;;;;;;;;4751491;30;20042;-79
2022/12/04 06:10:05;;;;;;;33.60;14.07;;;;;;;;;;4758798;30;20390;-80
2022/12/04 06:12:32;;;;;;;37.60;14.70;;;;;;;;;;4754150;30;20129;-80
2022/12/04 06:14:57;;;;;;;32.30;14.10;;;;;;;;;;4752219;30;20079;-79
2022/12/04 06:17:23;;;;;;;35.88;14.05;;;;;;;;;;4753587;30;20061;-80
2022/12/04 06:19:48;;;;;;;36.20;15.18;;;;;;;;;;4749401;30;20039;-80
2022/12/04 06:22:14;;;;;;;33.10;13.98;;;;;;;;;;4761506;30;20035;-79
2022/12/04 06:24:39;;;;;;;38.10;15.35;;;;;;;;;;4764039;30;20035;-80
2022/12/04 06:27:05;;;;;;;29.02;12.57;;;;;;;;;;4748501;30;20119;-79
2022/12/04 06:29:31;;;;;;;31.90;13.90;;;;;;;;;;4762804;30;20406;-80
2022/12/04 06:31:56;;;;;;;32.63;13.32;;;;;;;;;;4765320;30;20040;-80
2022/12/04 06:34:22;;;;;;;30.75;12.48;;;;;;;;;;4752863;30;20499;-80
2022/12/04 06:36:47;;;;;;;36.60;14.50;;;;;;;;;;4764033;30;20039;-80
2022/12/04 06:39:12;;;;;;;35.67;14.25;;;;;;;;;;4755472;30;20117;-80
2022/12/04 06:41:38;;;;;;;35.70;15.02;;;;;;;;;;4753345;30;20398;-80
2022/12/04 06:44:03;;;;;;;28.65;13.25;;;;;;;;;;4754244;30;20486;-80
2022/12/04 06:46:31;;;;;;;28.60;12.63;;;;;;;;;;4764613;30;20036;-80
2022/12/04 06:48:58;;;;;;;32.45;12.88;;;;;;;;;;4764909;30;20039;-81
2022/12/04 06:51:30;;;;;;;32.13;13.85;;;;;;;;;;4754837;30;20446;-80
2022/12/04 06:53:56;;;;;;;34.17;14.52;;;;;;;;;;4767372;30;20043;-80
2022/12/04 06:56:24;;;;;;;30.23;13.57;;;;;;;;;;4754054;30;20493;-80
2022/12/04 06:58:52;;;;;;;33.15;13.07;;;;;;;;;;4748031;30;20039;-80
2022/12/04 07:01:21;;;;;;;34.70;14.05;;;;;;;;;;4750953;30;20106;-79
2022/12/04 07:03:48;;;;;;;35.15;13.80;;;;;;;;;;4762808;30;20074;-80
2022/12/04 07:06:35;;;;;;;31.42;13.13;;;;;;;;;;4751736;30;20092;-80
2022/12/04 07:09:05;;;;;;;32.35;13.38;;;;;;;;;;4765720;30;20051;-80
2022/12/04 07:11:32;;;;;;;29.35;13.00;;;;;;;;;;4761549;30;20027;-80
2022/12/04 07:13:57;;;;;;;36.13;13.63;;;;;;;;;;4758107;30;20058;-80
2022/12/04 07:16:24;;;;;;;31.50;13.32;;;;;;;;;;4769507;30;20035;-80
2022/12/04 07:18:52;;;;;;;30.02;13.15;;;;;;;;;;4755177;30;20037;-80
2022/12/04 07:21:23;;;;;;;32.65;12.73;;;;;;;;;;4752919;30;20047;-80
2022/12/04 07:23:57;;;;;;;28.75;12.45;;;;;;;;;;4752225;30;20510;-80
2022/12/04 07:26:23;;;;;;;33.03;14.25;;;;;;;;;;4771187;30;20027;-80
2022/12/04 07:28:48;;;;;;;30.60;13.07;;;;;;;;;;4764695;30;20070;-80
2022/12/04 07:31:19;;;;;;;32.50;14.30;;;;;;;;;;4750585;30;20063;-80
2022/12/04 07:33:46;;;;;;;29.77;12.77;;;;;;;;;;4757544;30;20084;-80
2022/12/04 07:36:14;;;;;;;29.67;12.05;;;;;;;;;;4752281;30;20489;-80
2022/12/04 07:38:40;;;;;;;29.38;11.93;;;;;;;;;;4764424;30;20504;-80
2022/12/04 07:41:07;;;;;;;32.13;12.85;;;;;;;;;;4764678;30;20427;-79
2022/12/04 07:43:33;;;;;;;29.90;12.30;;;;;;;;;;4754028;30;20168;-80
2022/12/04 07:46:06;;;;;;;30.02;11.98;;;;;;;;;;4749886;30;20066;-80
2022/12/04 07:48:32;;;;;;;31.10;12.75;;;;;;;;;;4759470;30;20039;-79
2022/12/04 07:51:09;;;;;;;29.58;12.88;;;;;;;;;;4764381;30;20410;-79
2022/12/04 07:53:35;;;;;;;29.05;12.52;;;;;;;;;;4740194;30;20093;-80
2022/12/04 07:56:02;;;;;;;32.67;13.73;;;;;;;;;;4752616;30;20123;-80
2022/12/04 07:58:28;;;;;;;27.92;12.30;;;;;;;;;;4757879;30;20039;-80
2022/12/04 08:00:53;;;;;;;32.60;12.93;;;;;;;;;;4769342;30;20077;-80
2022/12/04 08:03:19;;;;;;;30.00;12.95;;;;;;;;;;4750468;30;20042;-80
2022/12/04 08:05:44;;;;;;;29.10;11.82;;;;;;;;;;4768903;30;20123;-80
2022/12/04 08:08:09;;;;;;;31.52;12.23;;;;;;;;;;4766761;30;20047;-80
2022/12/04 08:10:35;;;;;;;34.63;13.18;;;;;;;;;;4763719;30;20042;-80
2022/12/04 08:13:00;;;;;;;31.33;12.65;;;;;;;;;;4769794;30;20501;-80
2022/12/04 08:15:26;;;;;;;32.00;13.52;;;;;;;;;;4751123;30;20081;-79
2022/12/04 08:17:51;;;;;;;29.27;12.57;;;;;;;;;;4761410;30;20119;-80
2022/12/04 08:20:16;;;;;;;30.52;12.65;;;;;;;;;;4750032;30;20104;-79
2022/12/04 08:22:42;;;;;;;32.65;12.45;;;;;;;;;;4745059;30;20578;-80
2022/12/04 08:25:07;;;;;;;31.55;12.20;;;;;;;;;;4751805;30;20115;-80
2022/12/04 08:27:33;;;;;;;28.65;12.82;;;;;;;;;;4751112;30;20043;-81
2022/12/04 08:29:58;;;;;;;29.80;12.18;;;;;;;;;;4764729;30;20023;-80
2022/12/04 08:32:24;;;;;;;28.80;11.85;;;;;;;;;;4762757;30;20110;-80
2022/12/04 08:34:50;;;;;;;31.02;12.68;;;;;;;;;;4764562;30;20089;-80
2022/12/04 08:37:16;;;;;;;28.55;11.32;;;;;;;;;;4766572;30;20059;-80
2022/12/04 08:39:41;;;;;;;30.17;12.32;;;;;;;;;;4746449;30;20500;-80
2022/12/04 08:42:07;;;;;;;30.85;12.90;;;;;;;;;;4761249;30;20036;-79
2022/12/04 08:44:32;;;;;;;27.23;12.10;;;;;;;;;;4754514;30;20032;-79
2022/12/04 08:46:57;;;;;;;25.65;11.70;;;;;;;;;;4743554;30;20036;-80
2022/12/04 08:49:23;;;;;;;29.17;11.88;;;;;;;;;;4751887;30;20039;-80
2022/12/04 08:51:48;;;;;;;25.77;10.65;;;;;;;;;;4749411;30;20508;-79
2022/12/04 08:54:13;;;;;;;30.80;13.18;;;;;;;;;;4760035;30;20028;-79
2022/12/04 08:56:39;;;;;;;29.65;12.27;;;;;;;;;;4747229;30;20036;-80
2022/12/04 08:59:05;;;;;;;26.60;11.93;;;;;;;;;;4765292;30;20043;-80
2022/12/04 09:01:30;;;;;;;28.58;12.50;;;;;;;;;;4769425;30;20513;-79
2022/12/04 09:03:56;;;;;;;26.80;11.65;;;;;;;;;;4751839;30;20044;-80
2022/12/04 09:06:22;;;;;;;27.55;11.68;;;;;;;;;;4760254;30;20402;-80
2022/12/04 09:08:50;;;;;;;27.73;11.07;;;;;;;;;;4751389;30;20509;-79
2022/12/04 09:11:19;;;;;;;24.55;11.68;;;;;;;;;;4764456;30;20055;-80
2022/12/04 09:13:45;;;;;;;33.10;12.35;;;;;;;;;;4765763;30;20051;-79
2022/12/04 09:16:13;;;;;;;29.27;11.73;;;;;;;;;;4768775;30;20043;-80
2022/12/04 09:18:39;;;;;;;23.10;10.27;;;;;;;;;;4765720;30;20046;-79
2022/12/04 09:21:08;;;;;;;31.08;11.93;;;;;;;;;;4757099;30;20122;-80
2022/12/04 09:23:34;;;;;;;22.27;10.30;;;;;;;;;;4744705;30;20036;-79
2022/12/04 09:26:00;;;;;;;27.33;11.27;;;;;;;;;;4750843;30;20085;-80
2022/12/04 09:28:26;;;;;;;24.92;11.40;;;;;;;;;;4779935;30;20035;-80
2022/12/04 09:31:03;;;;;;;26.17;9.88;;;;;;;;;;4772554;30;20036;-81
2022/12/04 09:33:29;;;;;;;25.90;10.95;;;;;;;;;;4755110;30;20127;-81
2022/12/04 09:35:57;;;;;;;22.23;10.32;;;;;;;;;;4751941;30;20035;-81
2022/12/04 09:38:22;;;;;;;24.33;10.68;;;;;;;;;;4755811;30;20404;-80
2022/12/04 09:41:24;;;;;;;27.52;10.57;;;;;;;;;;4766400;30;20031;-80
2022/12/04 09:44:03;;;;;;;22.05;10.30;;;;;;;;;;4752142;30;20459;-81
2022/12/04 09:46:34;;;;;;;22.90;9.77;;;;;;;;;;4767732;30;20119;-80
2022/12/04 09:49:04;;;;;;;25.48;10.27;;;;;;;;;;4754138;30;20032;-80
2022/12/04 09:51:31;;;;;;;21.23;10.32;;;;;;;;;;4748290;30;20046;-79
2022/12/04 09:54:04;;;;;;;21.02;9.02;;;;;;;;;;4753091;30;20035;-80
2022/12/04 09:56:31;;;;;;;23.85;9.52;;;;;;;;;;4751670;30;20039;-80
2022/12/04 09:59:10;;;;;;;21.67;10.05;;;;;;;;;;4748013;30;20036;-80
2022/12/04 10:01:45;;;;;;;22.63;9.65;;;;;;;;;;4764433;30;20485;-81
2022/12/04 10:04:11;;;;;;;21.20;9.18;;;;;;;;;;4755439;30;20035;-80
2022/12/04 10:06:59;;;;;;;24.63;9.70;;;;;;;;;;4767594;30;20036;-81
2022/12/04 10:09:35;;;;;;;22.00;10.57;;;;;;;;;;4766019;30;20390;-81
2022/12/04 10:12:19;;;;;;;23.75;9.93;;;;;;;;;;4752022;30;20035;-81
2022/12/04 10:14:57;;;;;;;25.20;10.30;;;;;;;;;;4758666;30;20058;-80
2022/12/04 10:17:31;;;;;;;23.40;10.43;;;;;;;;;;4753954;30;20441;-80
2022/12/04 10:20:15;;;;;;;25.13;10.00;;;;;;;;;;4776095;30;20105;-80
2022/12/04 10:23:12;;;;;;;24.88;10.30;;;;;;;;;;4747806;30;20043;-80
2022/12/04 10:25:39;;;;;;;24.58;10.75;;;;;;;;;;4749258;30;20101;-80
2022/12/04 10:28:26;;;;;;;20.30;9.23;;;;;;;;;;4764090;30;20522;-79
2022/12/04 10:30:54;;;;;;;26.42;10.50;;;;;;;;;;4764221;30;20035;-81
2022/12/04 10:33:46;;;;;;;21.05;9.23;;;;;;;;;;4749094;30;20670;-80
2022/12/04 10:36:15;;;;;;;19.20;8.25;;;;;;;;;;4752517;30;20414;-79
2022/12/04 10:38:44;;;;;;;23.80;10.48;;;;;;;;;;4772442;30;20043;-79
2022/12/04 10:41:32;;;;;;;24.13;10.20;;;;;;;;;;4768954;30;20496;-80
2022/12/04 10:43:58;;;;;;;26.67;9.98;;;;;;;;;;4744182;30;20674;-80
2022/12/04 10:46:26;;;;;;;26.75;10.63;;;;;;;;;;4763925;30;20039;-79
2022/12/04 10:48:58;;;;;;;20.63;9.32;;;;;;;;;;4750130;30;20036;-80
2022/12/04 10:51:23;;;;;;;20.67;9.80;;;;;;;;;;4753800;30;20477;-80
2022/12/04 10:53:50;;;;;;;21.13;9.50;;;;;;;;;;4772487;30;20046;-80
2022/12/04 10:56:21;;;;;;;25.20;9.40;;;;;;;;;;4769528;30;20462;-80
2022/12/04 10:58:58;;;;;;;20.95;9.55;;;;;;;;;;4753676;30;20096;-80
2022/12/04 11:01:24;;;;;;;18.67;9.10;;;;;;;;;;4747460;30;20086;-80
2022/12/04 11:04:22;;;;;;;20.05;8.60;;;;;;;;;;4747057;30;20064;-80
2022/12/04 11:06:51;;;;;;;20.27;8.50;;;;;;;;;;4722815;30;20043;-81
2022/12/04 11:09:23;;;;;;;18.85;8.63;;;;;;;;;;4752538;30;20028;-80
2022/12/04 11:11:49;;;;;;;16.58;8.38;;;;;;;;;;4746037;30;20032;-80
2022/12/04 11:14:18;;;;;;;21.00;9.00;;;;;;;;;;4760858;30;20052;-80
2022/12/04 11:16:48;;;;;;;20.35;8.98;;;;;;;;;;4745706;30;20073;-80
2022/12/04 11:19:26;;;;;;;21.52;9.45;;;;;;;;;;4759356;30;20028;-81
2022/12/04 11:21:59;;;;;;;19.40;7.80;;;;;;;;;;4767450;30;20028;-79
2022/12/04 11:24:35;;;;;;;18.33;8.63;;;;;;;;;;4759803;30;20036;-81
2022/12/04 11:27:05;;;;;;;20.48;8.57;;;;;;;;;;4750608;30;20098;-80
2022/12/04 11:29:40;;;;;;;19.10;8.30;;;;;;;;;;4755204;30;20035;-80
2022/12/04 11:32:13;;;;;;;20.20;8.93;;;;;;;;;;4753936;30;20099;-80
2022/12/04 11:34:40;;;;;;;15.50;8.02;;;;;;;;;;4763421;30;20047;-80
2022/12/04 11:37:19;;;;;;;19.48;8.02;;;;;;;;;;4765694;30;20126;-81
2022/12/04 11:39:46;;;;;;;18.05;7.68;;;;;;;;;;4763198;30;20085;-80
2022/12/04 11:42:18;;;;;;;17.33;8.35;;;;;;;;;;4749812;30;20036;-79
2022/12/04 11:45:20;;;;;;;16.55;7.90;;;;;;;;;;4764779;30;20501;-80
2022/12/04 11:48:14;;;;;;;17.35;8.40;;;;;;;;;;4725652;30;20112;-79
2022/12/04 11:50:48;;;;;;;22.30;9.38;;;;;;;;;;4765225;30;20047;-80
2022/12/04 11:53:32;;;;;;;19.25;8.40;;;;;;;;;;4772746;30;20114;-79
2022/12/04 11:56:33;;;;;;;14.88;8.00;;;;;;;;;;4761880;30;20046;-80
2022/12/04 11:59:16;;;;;;;18.38;8.20;;;;;;;;;;4756096;30;20472;-80
2022/12/04 12:02:32;;;;;;;15.30;8.00;;;;;;;;;;4759740;30;20046;-80
2022/12/04 12:05:17;;;;;;;17.80;8.00;;;;;;;;;;4732094;30;20097;-81
2022/12/04 12:08:28;;;;;;;19.38;9.13;;;;;;;;;;4753317;30;20036;-80
2022/12/04 12:11:34;;;;;;;16.65;8.23;;;;;;;;;;4740772;30;20046;-80
2022/12/04 12:14:31;;;;;;;16.90;8.35;;;;;;;;;;4698068;30;20064;-80
2022/12/04 12:17:29;;;;;;;16.80;8.25;;;;;;;;;;4699901;30;20045;-80
2022/12/04 12:20:30;;;;;;;20.80;8.85;;;;;;;;;;4754400;30;20497;-80
2022/12/04 12:23:17;;;;;;;17.80;8.63;;;;;;;;;;4748374;30;20027;-80
2022/12/04 12:26:17;;;;;;;16.30;8.05;;;;;;;;;;4745182;30;20077;-80
2022/12/04 12:29:01;;;;;;;14.77;7.72;;;;;;;;;;4752309;30;20039;-80
2022/12/04 12:31:48;;;;;;;14.85;7.65;;;;;;;;;;4749223;30;20036;-80
2022/12/04 12:34:26;;;;;;;17.45;8.20;;;;;;;;;;4750931;30;20034;-80
2022/12/04 12:36:53;;;;;;;15.52;7.72;;;;;;;;;;4760537;30;20650;-81
2022/12/04 12:39:23;;;;;;;15.57;8.30;;;;;;;;;;4751915;30;20051;-80
2022/12/04 12:41:57;;;;;;;19.15;8.88;;;;;;;;;;4751523;30;20119;-80
2022/12/04 12:45:04;;;;;;;20.38;8.45;;;;;;;;;;4768740;30;20059;-80
2022/12/04 12:47:38;;;;;;;15.70;8.20;;;;;;;;;;4707806;30;20043;-80
2022/12/04 12:50:12;;;;;;;16.48;8.38;;;;;;;;;;4762674;30;20047;-80
2022/12/04 12:52:43;;;;;;;16.10;7.32;;;;;;;;;;4744860;30;20032;-80
2022/12/04 12:55:21;;;;;;;17.20;8.15;;;;;;;;;;4764394;30;20031;-80
2022/12/04 12:57:55;;;;;;;17.70;8.55;;;;;;;;;;4758370;30;20047;-80
2022/12/04 13:00:22;;;;;;;17.02;7.57;;;;;;;;;;4756798;30;20123;-80
2022/12/04 13:02:54;;;;;;;16.58;7.97;;;;;;;;;;4740194;30;20050;-80
2022/12/04 13:05:33;;;;;;;17.92;8.77;;;;;;;;;;4749420;30;20514;-80
2022/12/04 13:08:14;;;;;;;14.75;7.72;;;;;;;;;;4766021;30;20396;-80
2022/12/04 13:11:00;;;;;;;18.30;7.57;;;;;;;;;;4746499;30;20043;-80
2022/12/04 13:13:28;;;;;;;16.52;8.43;;;;;;;;;;4743263;30;20039;-80
2022/12/04 13:16:02;;;;;;;17.88;8.57;;;;;;;;;;4754465;30;20075;-80
2022/12/04 13:18:33;;;;;;;14.48;7.53;;;;;;;;;;4747811;30;20093;-80
2022/12/04 13:21:05;;;;;;;18.13;8.38;;;;;;;;;;4748311;30;20455;-80
2022/12/04 13:23:52;;;;;;;16.63;7.30;;;;;;;;;;4761626;30;20031;-80
2022/12/04 13:26:37;;;;;;;17.33;8.35;;;;;;;;;;4741521;30;20122;-80
2022/12/04 13:29:16;;;;;;;18.05;8.05;;;;;;;;;;4754673;30;20031;-81
2022/12/04 13:31:48;;;;;;;17.45;8.25;;;;;;;;;;4759240;30;20027;-80
2022/12/04 13:34:41;;;;;;;17.80;9.32;;;;;;;;;;4762891;30;20032;-80
2022/12/04 13:37:37;;;;;;;14.68;7.95;;;;;;;;;;4765538;30;20104;-80
2022/12/04 13:40:24;;;;;;;19.33;8.75;;;;;;;;;;4766441;30;20024;-80
2022/12/04 13:42:49;;;;;;;17.15;8.00;;;;;;;;;;4757775;30;20124;-80
2022/12/04 13:45:26;;;;;;;14.82;7.90;;;;;;;;;;4763489;30;20114;-79
2022/12/04 13:48:00;;;;;;;15.65;7.47;;;;;;;;;;4756910;30;20173;-80
2022/12/04 13:50:29;;;;;;;14.60;8.05;;;;;;;;;;4758995;30;20070;-80
2022/12/04 13:52:54;;;;;;;14.75;7.45;;;;;;;;;;4772513;30;20469;-80
2022/12/04 13:55:26;;;;;;;17.23;8.32;;;;;;;;;;4766249;30;20114;-80
2022/12/04 13:57:54;;;;;;;14.65;7.65;;;;;;;;;;4747866;30;20047;-81
2022/12/04 14:00:31;;;;;;;15.27;8.25;;;;;;;;;;4753236;30;20123;-80
2022/12/04 14:03:19;;;;;;;14.73;8.32;;;;;;;;;;4744224;30;20504;-80
2022/12/04 14:05:44;;;;;;;16.63;8.43;;;;;;;;;;4746244;30;20123;-80
2022/12/04 14:08:19;;;;;;;15.73;8.45;;;;;;;;;;4741870;30;20363;-80
2022/12/04 14:11:00;;;;;;;17.02;7.95;;;;;;;;;;4750840;30;20040;-80
2022/12/04 14:13:44;;;;;;;17.33;8.50;;;;;;;;;;4751176;30;20584;-80
2022/12/04 14:16:38;;;;;;;16.50;8.18;;;;;;;;;;4746392;30;20046;-80
2022/12/04 14:19:05;;;;;;;15.82;7.57;;;;;;;;;;4766520;30;20557;-80
2022/12/04 14:21:57;;;;;;;15.25;8.20;;;;;;;;;;4748427;30;20063;-80
2022/12/04 14:24:31;;;;;;;14.75;8.27;;;;;;;;;;4743802;30;20134;-79
2022/12/04 14:26:57;;;;;;;16.60;8.32;;;;;;;;;;4743285;30;20077;-79
2022/12/04 14:29:58;;;;;;;17.58;8.57;;;;;;;;;;4763472;30;20047;-80
2022/12/04 14:36:23;;;;;;;;;;;;;;;;;;;;;
2022/12/04 14:39:27;;;;;;;14.80;7.15;;;;;;;;;;4763611;30;20039;-80
2022/12/04 14:42:38;;;;;;;15.32;7.45;;;;;;;;;;4752917;30;20062;-80
2022/12/04 14:49:00;;;;;;;;;;;;;;;;;;;;;
2022/12/04 14:52:00;;;;;;;17.88;8.43;;;;;;;;;;4767375;30;20389;-80
2022/12/04 14:54:53;;;;;;;15.10;7.45;;;;;;;;;;4762653;30;20097;-80
2022/12/04 14:57:37;;;;;;;13.17;6.90;;;;;;;;;;4757917;30;20048;-80
2022/12/04 15:00:21;;;;;;;12.18;6.90;;;;;;;;;;4751020;30;20829;-80
2022/12/04 15:03:14;;;;;;;14.10;7.57;;;;;;;;;;4759165;30;20081;-80
2022/12/04 15:06:25;;;;;;;15.77;7.63;;;;;;;;;;4752824;30;20050;-80
2022/12/04 15:12:32;;;;;;;14.43;7.38;;;;;;;;;;4758287;30;20043;-80
2022/12/04 15:14:57;;;;;;;13.45;6.97;;;;;;;;;;4762725;30;20058;-80
2022/12/04 15:17:44;;;;;;;15.25;7.70;;;;;;;;;;4763113;30;20059;-80
2022/12/04 15:20:18;;;;;;;15.63;7.68;;;;;;;;;;4749078;30;20127;-80